Airfield :
LOGIN :

Register | Disclaimer

   EN    FR    IT 

 










Legend :    VFR   Marginal VFR   IFR   Intensive IFR   Very Intensive IFR
Visi :
Ceiling :
>= 8 km
>= 3000ft
5 to 8 km
1000 to 3000 ft
1500m to 5 km
500 to 1000 ft
800 to 1500m
200 to 500 ft
< 800m
< 200 ft
Symbols :   Thunderstorms  Fog  Heavy snow  Heavy precipitations  Wind > 20 kt
SIGMETs :     Misc.  Thunderstorms  Icing  Turbulence  Mountain Waves  Volcanic Ashes






- Airport Elevation : 349 ft
- IATA code : LPP


EFLP - Lappeenranta

CURRENT METAR :
  • 032050Z AUTO 29011KT 260V320 9999 OVC032 M00/M06 Q0994 REFZRA

EXPIRED METARs :
  • 032020Z AUTO 28012KT 9999 -FZRA OVC023 M00/M05 Q0993 REFZRA
  • 031950Z AUTO 28012KT 240V300 9999 OVC027 M00/M05 Q0992
  • 031920Z AUTO 29012KT 250V310 9999 OVC029 00/M05 Q0992
  • 031850Z AUTO 29009KT 260V320 9999 OVC024 00/M04 Q0991
  • 031820Z AUTO 27013G24KT 9999 -SHSN OVC027 01/M04 Q0990

Expired Forecast.



MET'MAP, your aeronautical weather chart ! - Copyright ORBIFLY December 2007 - Disclaimer

ORBIFLY MET'MAP TEAM :

Programming & Development : Alexandra Zaïnal
Concept & original design : Baudouin d'Aumeries
Assistance for programming : Marc-Olivier Méhu
Technical & hardware support : Manuel Goepfert

Contact : metmap@orbifly.com




SOURCES & CREDITS :

   NOAA